Time;durP1;ratioP1;P1;durP2;ratioP2;P2;SDS_P1;SDS_P2;PMS_P1;PMS_P2;Temp;Humidity;BMP_temperature;BMP_pressure;BME280_temperature;BME280_humidity;BME280_pressure;Samples;Min_cycle;Max_cycle;Signal;HPM_P1;HPM_P2
2022/01/25 00:08:38;;;;;;;55.42;25.13;;;-1.40;99.90;;;;;;5115496;28;20047;-67
2022/01/25 00:25:06;;;;;;;53.63;25.17;;;-1.60;99.90;;;;;;5129709;28;20089;-66
2022/01/25 00:27:48;;;;;;;54.05;26.02;;;-1.60;99.90;;;;;;5124296;28;20028;-66
2022/01/25 00:30:28;;;;;;;54.85;26.73;;;-1.70;99.90;;;;;;5130344;27;20373;-67
2022/01/25 00:32:55;;;;;;;58.83;27.17;;;-1.60;99.90;;;;;;5135223;27;20494;-67
2022/01/25 00:35:20;;;;;;;53.20;25.48;;;-1.60;99.90;;;;;;5120994;27;20111;-66
2022/01/25 00:37:46;;;;;;;51.05;25.38;;;-1.50;99.90;;;;;;5114930;27;20042;-67
2022/01/25 00:40:12;;;;;;;51.65;24.75;;;-1.60;99.90;;;;;;5116485;27;20028;-67
2022/01/25 00:42:37;;;;;;;48.65;24.40;;;-1.60;99.90;;;;;;5124476;27;20015;-66
2022/01/25 00:45:04;;;;;;;52.10;25.20;;;-1.70;99.90;;;;;;5135194;27;20084;-66
2022/01/25 00:47:29;;;;;;;58.92;25.92;;;-1.70;99.90;;;;;;5135000;27;20043;-66
2022/01/25 00:49:55;;;;;;;53.40;25.70;;;-1.70;99.90;;;;;;5119503;27;20039;-66
2022/01/25 00:53:54;;;;;;;49.92;25.35;;;-1.80;99.90;;;;;;5115488;27;20031;-66
2022/01/25 00:55:11;;;;;;;52.08;23.00;;;-1.80;99.90;;;;;;5118853;27;20039;-66
2022/01/25 00:57:37;;;;;;;54.50;24.38;;;-1.90;99.90;;;;;;5128214;27;20036;-66
2022/01/25 01:00:06;;;;;;;58.85;26.02;;;-1.90;99.90;;;;;;5114870;28;20110;-66
2022/01/25 01:02:31;;;;;;;52.28;25.02;;;-1.90;99.90;;;;;;5117116;27;20027;-66
2022/01/25 01:04:57;;;;;;;55.58;25.70;;;-1.90;99.90;;;;;;5132953;27;20054;-65
2022/01/25 01:07:23;;;;;;;53.17;24.90;;;-1.90;99.90;;;;;;5129227;27;20027;-66
2022/01/25 01:09:51;;;;;;;51.22;25.10;;;-1.90;99.90;;;;;;5133132;27;20031;-66
2022/01/25 01:13:24;;;;;;;59.58;26.15;;;-1.90;99.90;;;;;;5089896;28;20365;-66
2022/01/25 01:29:16;;;;;;;57.92;27.85;;;-1.80;99.90;;;;;;5129737;27;20065;-66
2022/01/25 01:32:12;;;;;;;52.08;26.23;;;-1.80;99.90;;;;;;5115617;27;20114;-66
2022/01/25 01:35:01;;;;;;;57.28;26.23;;;-1.70;99.90;;;;;;5113025;28;20039;-66
2022/01/25 01:38:08;;;;;;;48.90;26.08;;;-1.80;99.90;;;;;;5122889;27;20032;-66
2022/01/25 01:43:03;;;;;;;53.63;25.92;;;-1.80;99.90;;;;;;5116303;27;20035;-66
2022/01/25 01:45:44;;;;;;;54.20;26.52;;;-1.80;99.90;;;;;;5130934;27;20050;-66
2022/01/25 01:48:16;;;;;;;65.15;29.17;;;-1.90;99.90;;;;;;5130301;27;20101;-66
2022/01/25 01:50:42;;;;;;;67.70;28.42;;;-1.90;99.90;;;;;;5134632;27;20499;-66
2022/01/25 01:53:08;;;;;;;76.18;32.22;;;-1.90;99.90;;;;;;5132023;27;20066;-66
2022/01/25 01:55:35;;;;;;;64.45;28.63;;;-1.80;99.90;;;;;;5119690;27;20027;-66
2022/01/25 01:58:01;;;;;;;62.20;28.48;;;-1.80;99.90;;;;;;5113205;28;20031;-66
2022/01/25 02:00:34;;;;;;;56.25;26.50;;;-1.80;99.90;;;;;;5124096;27;20133;-67
2022/01/25 02:03:01;;;;;;;56.00;28.45;;;-1.90;99.90;;;;;;5115698;27;20415;-66
2022/01/25 02:05:27;;;;;;;59.05;27.73;;;-1.90;99.90;;;;;;5114042;27;20071;-67
2022/01/25 02:07:53;;;;;;;67.15;30.08;;;-1.90;99.90;;;;;;5106079;28;20100;-66
2022/01/25 02:10:19;;;;;;;62.55;30.23;;;-2.00;99.90;;;;;;5126020;27;20461;-66
2022/01/25 02:12:48;;;;;;;55.42;27.25;;;-2.00;99.90;;;;;;5119405;27;20023;-66
2022/01/25 02:15:15;;;;;;;61.17;29.15;;;-2.00;99.90;;;;;;5133749;27;20110;-67
2022/01/25 02:23:23;;;;;;;68.22;30.60;;;-2.10;99.90;;;;;;5106926;28;20089;-67
2022/01/25 02:25:55;;;;;;;61.58;29.13;;;-2.10;99.90;;;;;;5109106;28;20153;-66
2022/01/25 02:28:24;;;;;;;58.17;29.05;;;-2.20;99.90;;;;;;5093269;28;20368;-67
2022/01/25 02:30:49;;;;;;;60.80;28.83;;;-2.20;99.90;;;;;;5099225;28;20112;-66
2022/01/25 02:33:15;;;;;;;60.75;28.80;;;-2.20;99.90;;;;;;5102586;28;20484;-67
2022/01/25 02:35:42;;;;;;;70.85;31.00;;;-2.30;99.90;;;;;;5100380;28;20028;-66
2022/01/25 02:38:07;;;;;;;74.80;31.25;;;-2.30;99.90;;;;;;5094027;28;20784;-66
2022/01/25 02:40:34;;;;;;;70.78;32.10;;;-2.20;99.90;;;;;;5111235;28;20032;-66
2022/01/25 02:43:00;;;;;;;78.05;34.03;;;-2.20;99.90;;;;;;5110236;28;20041;-67
2022/01/25 02:45:32;;;;;;;72.93;31.98;;;-2.20;99.90;;;;;;5101159;28;20028;-67
2022/01/25 02:50:42;;;;;;;79.35;35.22;;;-2.10;99.90;;;;;;5107894;28;20115;-67
2022/01/25 02:53:08;;;;;;;77.00;34.13;;;-2.00;99.90;;;;;;5091084;28;20111;-67
2022/01/25 02:55:34;;;;;;;83.85;37.88;;;-2.00;99.90;;;;;;5101264;28;20034;-66
2022/01/25 02:58:00;;;;;;;78.85;34.63;;;-1.90;99.90;;;;;;5112048;28;20051;-66
2022/01/25 03:00:26;;;;;;;80.82;36.15;;;-1.80;99.90;;;;;;5120152;27;20058;-66
2022/01/25 03:02:51;;;;;;;72.53;34.33;;;-1.70;99.90;;;;;;5106413;27;20023;-67
2022/01/25 03:05:17;;;;;;;69.20;34.10;;;-1.70;99.90;;;;;;5122951;27;20027;-66
2022/01/25 03:07:44;;;;;;;80.22;35.53;;;-1.70;99.90;;;;;;5112626;28;20127;-67
2022/01/25 03:10:11;;;;;;;73.65;33.75;;;-1.70;99.90;;;;;;5113256;27;20041;-67
2022/01/25 03:12:51;;;;;;;71.65;33.47;;;-1.70;99.90;;;;;;5112352;28;20032;-67
2022/01/25 03:17:53;;;;;;;75.55;33.72;;;-1.70;99.90;;;;;;5132902;27;20468;-67
2022/01/25 03:20:22;;;;;;;65.30;32.13;;;-1.70;99.90;;;;;;5132960;27;20080;-67
2022/01/25 03:25:21;;;;;;;64.75;32.40;;;-1.80;99.90;;;;;;5131143;27;20031;-66
2022/01/25 03:27:47;;;;;;;69.25;31.27;;;-1.80;99.90;;;;;;5127217;27;20047;-67
2022/01/25 03:30:13;;;;;;;66.88;31.73;;;-1.80;99.90;;;;;;5113358;28;20099;-66
2022/01/25 03:32:38;;;;;;;61.05;29.60;;;-1.90;99.90;;;;;;5115147;27;20153;-67
2022/01/25 03:35:05;;;;;;;64.90;30.13;;;-2.00;99.90;;;;;;5118765;27;20387;-67
2022/01/25 03:37:31;;;;;;;62.95;30.23;;;-2.10;99.90;;;;;;5132308;27;20034;-68
2022/01/25 03:39:56;;;;;;;68.85;31.08;;;-2.10;99.90;;;;;;5131862;27;20039;-67
2022/01/25 03:42:23;;;;;;;77.63;33.83;;;-2.20;99.90;;;;;;5131169;27;20031;-67
2022/01/25 03:44:49;;;;;;;71.68;33.70;;;-2.10;99.90;;;;;;5131734;27;20464;-67
2022/01/25 03:47:19;;;;;;;66.30;32.80;;;-2.10;99.90;;;;;;5132053;28;20593;-67
2022/01/25 03:49:51;;;;;;;71.40;33.25;;;-2.10;99.90;;;;;;5132735;27;20035;-66
2022/01/25 03:52:33;;;;;;;68.32;33.08;;;-2.00;99.90;;;;;;5105966;28;20105;-65
2022/01/25 03:54:59;;;;;;;60.42;29.80;;;-2.00;99.90;;;;;;5106649;28;20028;-66
2022/01/25 03:57:26;;;;;;;76.47;34.78;;;-2.00;99.90;;;;;;5122861;28;20050;-66
2022/01/25 03:59:52;;;;;;;68.10;32.35;;;-2.00;99.90;;;;;;5126031;28;20379;-66
2022/01/25 04:02:18;;;;;;;66.85;32.75;;;-2.00;99.90;;;;;;5123928;28;20024;-65
2022/01/25 04:04:45;;;;;;;64.68;30.73;;;-2.00;99.90;;;;;;5114245;28;20028;-66
2022/01/25 04:07:13;;;;;;;64.45;32.42;;;-2.10;99.90;;;;;;5125154;27;20031;-66
2022/01/25 04:09:39;;;;;;;70.43;31.60;;;-2.10;99.90;;;;;;5136863;27;20154;-65
2022/01/25 04:12:07;;;;;;;66.40;31.25;;;-2.10;99.90;;;;;;5119184;27;20072;-65
2022/01/25 04:14:33;;;;;;;63.70;29.88;;;-2.20;99.90;;;;;;5116046;28;20098;-65
2022/01/25 04:17:08;;;;;;;66.55;30.13;;;-2.20;99.90;;;;;;5116137;27;20035;-65
2022/01/25 04:27:22;;;;;;;66.97;31.23;;;-2.40;99.90;;;;;;5116233;27;20034;-65
2022/01/25 04:29:48;;;;;;;72.65;31.70;;;-2.50;99.90;;;;;;5115608;28;20034;-65
2022/01/25 04:32:14;;;;;;;68.45;32.08;;;-2.50;99.90;;;;;;5123364;27;20609;-65
2022/01/25 04:34:44;;;;;;;67.45;32.13;;;-2.50;99.90;;;;;;5123386;27;20028;-65
2022/01/25 04:56:07;;;;;;;66.60;31.65;;;-2.40;99.90;;;;;;5119193;27;20038;-66
2022/01/25 04:58:42;;;;;;;67.47;30.23;;;-2.50;99.90;;;;;;5095007;28;20419;-65
2022/01/25 05:01:08;;;;;;;72.90;31.38;;;-2.50;99.90;;;;;;5106645;27;20028;-65
2022/01/25 05:04:23;;;;;;;73.18;33.30;;;-2.60;99.90;;;;;;5122552;27;20502;-65
2022/01/25 05:06:23;;;;;;;70.95;31.80;;;-2.60;99.90;;;;;;5099618;27;20365;-66
2022/01/25 05:08:52;;;;;;;62.63;28.95;;;-2.60;99.90;;;;;;5114770;27;20046;-65
2022/01/25 05:11:31;;;;;;;74.20;31.67;;;-2.60;99.90;;;;;;5116190;27;20027;-65
2022/01/25 05:16:46;;;;;;;66.95;30.80;;;-2.60;99.90;;;;;;5130949;27;20027;-65
2022/01/25 05:24:29;;;;;;;70.80;31.13;;;-2.60;99.90;;;;;;5130498;27;20392;-67
2022/01/25 05:26:55;;;;;;;79.65;35.67;;;-2.60;99.90;;;;;;5114271;28;20039;-66
2022/01/25 05:29:21;;;;;;;69.65;31.83;;;-2.50;99.90;;;;;;5114721;28;20043;-67
2022/01/25 05:31:47;;;;;;;75.95;33.25;;;-2.50;99.90;;;;;;5121642;27;20031;-67
2022/01/25 05:34:12;;;;;;;70.35;32.92;;;-2.60;99.90;;;;;;5121134;27;20027;-66
2022/01/25 05:36:39;;;;;;;68.97;30.83;;;-2.60;99.90;;;;;;5135247;27;20030;-67
2022/01/25 05:39:19;;;;;;;73.15;31.63;;;-2.80;99.90;;;;;;5128965;27;20059;-66
2022/01/25 05:41:53;;;;;;;74.55;33.08;;;-2.90;99.90;;;;;;5123643;27;20019;-66
2022/01/25 05:46:52;;;;;;;77.30;33.63;;;-2.90;99.90;;;;;;5113830;28;20103;-66
2022/01/25 05:49:19;;;;;;;73.80;34.22;;;-2.90;99.90;;;;;;5113988;28;20138;-66
2022/01/25 05:51:44;;;;;;;82.32;34.45;;;-2.90;99.90;;;;;;5127298;27;20054;-66
2022/01/25 05:54:11;;;;;;;81.88;34.03;;;-2.70;99.90;;;;;;5116965;27;20132;-66
2022/01/25 05:56:36;;;;;;;84.50;36.10;;;-2.60;99.90;;;;;;5114315;27;20494;-66
2022/01/25 05:59:02;;;;;;;71.97;32.22;;;-2.70;99.90;;;;;;5113356;28;20059;-66
2022/01/25 06:01:28;;;;;;;83.25;35.85;;;-2.70;99.90;;;;;;5114287;28;20046;-66
2022/01/25 06:03:54;;;;;;;75.40;34.40;;;-2.70;99.90;;;;;;5108601;27;20118;-66
2022/01/25 06:06:20;;;;;;;80.78;35.35;;;-2.80;99.90;;;;;;5117930;27;20059;-66
2022/01/25 06:08:46;;;;;;;78.45;32.85;;;-2.80;99.90;;;;;;5119177;27;20513;-66
2022/01/25 06:11:11;;;;;;;71.53;32.92;;;-2.80;99.90;;;;;;5133433;27;20110;-66
2022/01/25 06:13:37;;;;;;;73.93;32.13;;;-2.90;99.90;;;;;;5122632;27;20499;-67
2022/01/25 06:16:03;;;;;;;76.40;32.88;;;-2.90;99.90;;;;;;5113390;28;20027;-67
2022/01/25 06:18:28;;;;;;;76.32;33.28;;;-2.90;99.90;;;;;;5130597;27;20043;-67
2022/01/25 06:20:54;;;;;;;74.53;32.30;;;-2.90;99.90;;;;;;5133426;27;20058;-67
2022/01/25 06:23:20;;;;;;;73.65;32.97;;;-2.90;99.90;;;;;;5126474;27;20026;-67
2022/01/25 06:25:45;;;;;;;73.40;32.85;;;-2.90;99.90;;;;;;5113619;28;20020;-67
2022/01/25 06:28:13;;;;;;;100.85;38.55;;;-3.00;99.90;;;;;;5111163;28;20664;-68
2022/01/25 06:30:39;;;;;;;90.82;36.42;;;-3.00;99.90;;;;;;5113675;28;20085;-67
2022/01/25 06:33:07;;;;;;;95.28;38.22;;;-2.90;99.90;;;;;;5120964;27;20106;-67
2022/01/25 06:35:34;;;;;;;79.35;33.95;;;-2.80;99.90;;;;;;5100477;27;20019;-67
2022/01/25 06:38:00;;;;;;;79.57;33.75;;;-2.80;99.90;;;;;;5108086;27;20526;-66
2022/01/25 06:40:27;;;;;;;83.05;36.00;;;-2.90;99.90;;;;;;5113259;28;20088;-68
2022/01/25 06:42:53;;;;;;;84.90;34.40;;;-2.90;99.90;;;;;;5117898;27;20333;-66
2022/01/25 06:45:21;;;;;;;75.18;33.85;;;-2.90;99.90;;;;;;5133807;27;20027;-67
2022/01/25 06:47:49;;;;;;;81.55;35.13;;;-2.90;99.90;;;;;;5120498;27;20138;-67
2022/01/25 06:50:16;;;;;;;80.93;33.70;;;-2.80;99.90;;;;;;5111953;28;20030;-68
2022/01/25 06:52:42;;;;;;;76.88;33.38;;;-2.80;99.90;;;;;;5125665;27;20459;-66
2022/01/25 06:55:14;;;;;;;73.82;33.70;;;-2.80;99.90;;;;;;5112060;28;20102;-66
2022/01/25 06:57:40;;;;;;;70.80;33.38;;;-2.80;99.90;;;;;;5110256;28;20490;-66
2022/01/25 07:00:24;;;;;;;69.80;32.33;;;-2.80;99.90;;;;;;5113526;28;20023;-66
2022/01/25 07:02:50;;;;;;;75.15;31.75;;;-2.90;99.90;;;;;;5116184;27;20084;-66
2022/01/25 07:05:16;;;;;;;75.82;31.42;;;-2.90;99.90;;;;;;5120111;27;20032;-65
2022/01/25 07:07:42;;;;;;;78.90;34.63;;;-2.90;99.90;;;;;;5112199;28;20032;-66
2022/01/25 07:10:09;;;;;;;84.20;34.33;;;-3.00;99.90;;;;;;5113879;27;20076;-66
2022/01/25 07:12:35;;;;;;;90.57;34.65;;;-3.00;99.90;;;;;;5099396;27;20070;-68
2022/01/25 07:15:01;;;;;;;84.18;35.13;;;-2.90;99.90;;;;;;5112013;27;20028;-66
2022/01/25 07:17:27;;;;;;;79.50;34.25;;;-2.90;99.90;;;;;;5112828;27;20039;-65
2022/01/25 07:19:52;;;;;;;92.72;38.10;;;-2.80;99.90;;;;;;5131925;27;20468;-65
2022/01/25 07:22:18;;;;;;;92.88;37.50;;;-2.70;99.90;;;;;;5131548;27;20028;-66
2022/01/25 07:24:44;;;;;;;96.18;38.00;;;-2.60;99.90;;;;;;5113471;27;20035;-65
2022/01/25 07:27:09;;;;;;;79.10;34.75;;;-2.50;99.90;;;;;;5115408;27;20057;-65
2022/01/25 07:29:36;;;;;;;81.60;33.22;;;-2.40;99.90;;;;;;5122020;27;20035;-65
2022/01/25 07:32:02;;;;;;;72.75;32.58;;;-2.40;99.90;;;;;;5116133;27;20026;-64
2022/01/25 07:34:28;;;;;;;69.40;31.45;;;-2.40;99.90;;;;;;5115973;27;20032;-65
2022/01/25 07:36:54;;;;;;;76.43;33.25;;;-2.50;99.90;;;;;;5113581;27;20032;-65
2022/01/25 07:39:21;;;;;;;72.20;31.15;;;-2.60;99.90;;;;;;5112188;28;20035;-65
2022/01/25 07:41:47;;;;;;;81.53;33.03;;;-2.60;99.90;;;;;;5132509;27;20178;-65
2022/01/25 07:44:13;;;;;;;96.55;38.05;;;-2.60;99.90;;;;;;5132091;27;20058;-67
2022/01/25 07:46:39;;;;;;;79.90;35.08;;;-2.60;99.90;;;;;;5115235;27;20106;-72
2022/01/25 07:49:06;;;;;;;88.00;35.30;;;-2.60;99.90;;;;;;5113424;27;20044;-73
2022/01/25 07:51:35;;;;;;;84.07;35.17;;;-2.60;99.90;;;;;;5094400;28;20081;-71
2022/01/25 07:54:01;;;;;;;79.45;33.25;;;-2.50;99.90;;;;;;5111185;28;20073;-67
2022/01/25 07:56:27;;;;;;;77.05;32.97;;;-2.50;99.90;;;;;;5126912;28;20023;-75
2022/01/25 07:58:53;;;;;;;85.28;34.58;;;-2.50;99.90;;;;;;5099761;28;20031;-73
2022/01/25 08:01:20;;;;;;;82.20;34.85;;;-2.50;99.90;;;;;;5127411;28;20422;-72
2022/01/25 08:03:46;;;;;;;74.88;33.65;;;-2.40;99.90;;;;;;5121454;28;20102;-74
2022/01/25 08:06:13;;;;;;;79.85;34.38;;;-2.40;99.90;;;;;;5122716;28;20102;-72
2022/01/25 08:08:40;;;;;;;75.50;32.78;;;-2.30;99.90;;;;;;5118496;28;20035;-65
2022/01/25 08:11:05;;;;;;;75.50;33.45;;;-2.20;99.90;;;;;;5116100;28;20031;-65
2022/01/25 08:13:36;;;;;;;76.68;33.47;;;-2.20;99.90;;;;;;5132259;28;20030;-64
2022/01/25 08:16:02;;;;;;;80.60;35.10;;;-2.20;99.90;;;;;;5131068;28;20023;-64
2022/01/25 08:18:28;;;;;;;76.68;35.05;;;-2.10;99.90;;;;;;5126730;28;20345;-64
2022/01/25 08:20:54;;;;;;;73.40;32.55;;;-2.00;99.90;;;;;;5120206;28;20227;-65
2022/01/25 08:23:19;;;;;;;74.32;34.08;;;-1.90;99.90;;;;;;5125885;28;20030;-64
2022/01/25 08:25:45;;;;;;;69.50;31.92;;;-1.80;99.90;;;;;;5110025;28;20543;-65
2022/01/25 08:28:10;;;;;;;63.90;31.05;;;-1.70;99.90;;;;;;5122720;28;20067;-65
2022/01/25 08:30:36;;;;;;;64.18;30.73;;;-1.60;99.90;;;;;;5133076;28;20034;-65
2022/01/25 08:33:02;;;;;;;67.35;30.63;;;-1.60;99.90;;;;;;5134245;28;20031;-63
2022/01/25 08:35:29;;;;;;;68.45;32.28;;;-1.50;99.90;;;;;;5127638;28;20027;-66
2022/01/25 08:37:56;;;;;;;61.05;30.08;;;-1.40;99.90;;;;;;5137295;28;20035;-66
2022/01/25 08:40:21;;;;;;;59.55;30.27;;;-1.30;99.90;;;;;;5136198;28;20139;-65
2022/01/25 08:42:47;;;;;;;91.80;40.80;;;-1.20;99.90;;;;;;5125314;28;20027;-64
2022/01/25 08:45:13;;;;;;;103.70;46.25;;;-1.20;99.90;;;;;;5125338;28;20027;-65
2022/01/25 08:47:40;;;;;;;119.00;55.70;;;-1.10;99.90;;;;;;5129064;28;20047;-65
2022/01/25 08:50:08;;;;;;;100.75;50.35;;;-1.00;99.90;;;;;;5097805;27;20031;-66
2022/01/25 08:52:35;;;;;;;84.88;42.83;;;-1.00;99.90;;;;;;5128374;27;20027;-64
2022/01/25 08:55:01;;;;;;;73.38;37.63;;;-0.90;99.90;;;;;;5115568;27;20031;-64
2022/01/25 08:57:27;;;;;;;70.25;35.33;;;-0.90;99.90;;;;;;5123889;27;20360;-64
2022/01/25 08:59:52;;;;;;;64.18;33.03;;;-0.80;99.90;;;;;;5117879;27;20027;-65
2022/01/25 09:02:18;;;;;;;54.50;30.73;;;-0.80;99.90;;;;;;5131847;27;20026;-67
2022/01/25 09:04:43;;;;;;;64.18;31.80;;;-0.70;99.90;;;;;;5135312;27;20106;-69
2022/01/25 09:07:10;;;;;;;53.95;29.52;;;-0.70;99.90;;;;;;5124454;27;20075;-67
2022/01/25 09:09:35;;;;;;;62.53;29.38;;;-0.60;99.90;;;;;;5131957;27;20134;-67
2022/01/25 09:12:01;;;;;;;54.45;29.02;;;-0.60;99.90;;;;;;5116386;27;20503;-66
2022/01/25 09:14:27;;;;;;;49.70;28.67;;;-0.50;99.90;;;;;;5119428;27;20041;-67
2022/01/25 09:16:53;;;;;;;49.55;28.02;;;-0.30;99.90;;;;;;5133052;27;20468;-68
2022/01/25 09:19:18;;;;;;;50.10;28.08;;;-0.30;99.90;;;;;;5106842;28;20039;-67
2022/01/25 09:21:44;;;;;;;52.20;28.17;;;-0.20;99.90;;;;;;5125021;27;20628;-68
2022/01/25 09:24:10;;;;;;;54.20;26.85;;;-0.10;99.90;;;;;;5126709;27;20028;-67
2022/01/25 09:26:36;;;;;;;48.55;26.08;;;0.00;99.90;;;;;;5120103;27;20650;-67
2022/01/25 09:29:03;;;;;;;46.75;26.42;;;0.00;99.90;;;;;;5109797;27;20530;-67
2022/01/25 09:31:29;;;;;;;41.97;23.98;;;0.10;99.90;;;;;;5133330;27;20077;-67
2022/01/25 09:33:55;;;;;;;45.88;24.50;;;0.20;99.90;;;;;;5119559;27;20503;-67
2022/01/25 09:36:24;;;;;;;43.53;24.52;;;0.20;99.90;;;;;;5117426;27;20027;-67
2022/01/25 09:38:54;;;;;;;44.70;24.00;;;0.30;99.90;;;;;;5114260;27;20377;-67
2022/01/25 09:41:20;;;;;;;45.05;22.88;;;0.30;99.90;;;;;;5112757;27;20301;-67
2022/01/25 09:43:46;;;;;;;44.72;23.42;;;0.40;99.90;;;;;;5118255;27;20031;-67
2022/01/25 09:46:12;;;;;;;42.60;23.48;;;0.50;99.90;;;;;;5099465;27;20087;-68
2022/01/25 09:48:37;;;;;;;41.70;22.33;;;0.60;99.90;;;;;;5125107;27;20384;-69
2022/01/25 09:51:06;;;;;;;39.58;23.40;;;0.60;99.90;;;;;;5123223;27;20035;-68
2022/01/25 09:53:33;;;;;;;45.85;25.35;;;0.70;99.90;;;;;;5117859;27;20104;-69
2022/01/25 09:55:59;;;;;;;41.05;23.50;;;0.80;99.90;;;;;;5114026;27;20031;-67
2022/01/25 09:58:25;;;;;;;42.00;24.63;;;0.80;99.90;;;;;;5133476;27;20031;-68
2022/01/25 10:00:56;;;;;;;47.80;25.73;;;0.90;99.90;;;;;;5133084;27;20084;-67
2022/01/25 10:03:33;;;;;;;45.97;24.75;;;1.00;99.90;;;;;;5120028;27;20031;-68
2022/01/25 10:06:01;;;;;;;48.03;25.60;;;1.10;99.90;;;;;;5134637;27;20031;-69
2022/01/25 10:08:32;;;;;;;39.22;24.17;;;1.30;99.90;;;;;;5119541;27;20048;-70
2022/01/25 10:11:07;;;;;;;43.33;24.25;;;1.50;99.90;;;;;;5120631;27;20031;-69
2022/01/25 10:13:43;;;;;;;43.88;25.92;;;1.60;99.90;;;;;;5113287;27;20477;-68
2022/01/25 10:16:30;;;;;;;41.25;24.45;;;1.60;99.90;;;;;;5126638;27;20034;-73
2022/01/25 10:19:03;;;;;;;43.00;24.27;;;1.80;99.90;;;;;;5120748;27;20066;-70
2022/01/25 10:21:32;;;;;;;47.08;25.50;;;1.80;99.90;;;;;;5131183;27;20529;-70
2022/01/25 10:29:07;;;;;;;41.85;24.25;;;1.90;99.90;;;;;;5283672;22;20056;-71
2022/01/25 10:31:38;;;;;;;43.33;23.83;;;2.00;99.90;;;;;;5070137;28;20043;-72
2022/01/25 10:34:09;;;;;;;50.47;25.27;;;2.00;99.90;;;;;;5062501;28;20066;-87
2022/01/25 10:36:45;;;;;;;43.65;23.40;;;2.20;99.90;;;;;;5061042;28;20464;-69
2022/01/25 10:39:20;;;;;;;45.50;24.10;;;2.10;99.90;;;;;;5076821;28;20439;-70
2022/01/25 10:41:45;;;;;;;52.13;25.83;;;2.20;99.90;;;;;;5082994;28;20031;-68
2022/01/25 10:44:11;;;;;;;48.33;24.50;;;2.30;99.90;;;;;;5072798;28;20032;-68
2022/01/25 10:46:38;;;;;;;42.08;23.38;;;2.30;99.90;;;;;;5073865;28;20037;-75
2022/01/25 10:49:15;;;;;;;44.03;23.90;;;2.30;99.90;;;;;;5072545;28;20024;-74
2022/01/25 10:51:41;;;;;;;39.20;22.67;;;;;;;;;;5086219;28;20058;-72
2022/01/25 10:54:15;;;;;;;48.50;24.92;;;2.40;99.90;;;;;;5079696;28;20025;-69
2022/01/25 10:56:49;;;;;;;44.47;24.60;;;2.50;99.90;;;;;;5087060;28;20047;-67
2022/01/25 10:59:21;;;;;;;42.47;23.52;;;2.60;99.90;;;;;;5064956;28;20047;-67
2022/01/25 11:01:55;;;;;;;40.25;23.73;;;2.60;99.90;;;;;;5082194;28;20417;-67
2022/01/25 11:04:34;;;;;;;45.50;25.50;;;2.70;99.90;;;;;;5077740;28;20122;-68
2022/01/25 11:07:06;;;;;;;46.35;24.33;;;2.80;99.90;;;;;;5071897;28;20024;-68
2022/01/25 11:09:37;;;;;;;40.58;23.73;;;3.00;99.90;;;;;;5072220;28;20036;-68
2022/01/25 11:12:06;;;;;;;42.20;23.40;;;3.00;99.90;;;;;;5070653;28;20044;-67
2022/01/25 11:14:50;;;;;;;41.95;24.83;;;3.00;99.90;;;;;;5086038;28;20054;-70
2022/01/25 11:17:20;;;;;;;43.47;25.63;;;3.00;99.90;;;;;;5059094;28;20453;-66
2022/01/25 11:19:46;;;;;;;42.03;23.63;;;3.10;99.90;;;;;;5082574;28;20467;-66
2022/01/25 11:22:19;;;;;;;45.28;23.85;;;3.30;99.90;;;;;;5071750;28;20040;-67
2022/01/25 11:24:50;;;;;;;43.13;25.90;;;3.30;99.90;;;;;;5088273;28;20048;-67
2022/01/25 11:27:17;;;;;;;45.20;26.98;;;3.30;99.90;;;;;;5081323;28;20020;-68
2022/01/25 11:29:44;;;;;;;47.55;27.35;;;3.50;99.90;;;;;;5081510;28;20105;-68
2022/01/25 11:32:14;;;;;;;45.38;26.48;;;3.50;99.90;;;;;;5072363;28;20100;-68
2022/01/25 11:34:43;;;;;;;45.25;25.75;;;3.50;99.90;;;;;;5087271;28;20028;-68
2022/01/25 11:37:09;;;;;;;41.75;26.27;;;3.50;99.90;;;;;;5074743;28;20033;-68
2022/01/25 11:39:40;;;;;;;45.90;26.27;;;3.60;99.90;;;;;;5085612;28;20479;-66
2022/01/25 11:42:09;;;;;;;45.03;26.80;;;3.60;99.90;;;;;;5074216;28;20020;-67
2022/01/25 11:44:35;;;;;;;44.40;25.70;;;3.60;99.90;;;;;;5085666;28;20111;-66
2022/01/25 11:47:13;;;;;;;42.13;25.90;;;3.70;99.90;;;;;;5074845;28;20060;-68
2022/01/25 11:49:56;;;;;;;43.55;25.38;;;3.70;99.90;;;;;;5084508;28;20039;-67
2022/01/25 11:52:25;;;;;;;43.67;25.27;;;3.80;99.90;;;;;;5071058;28;20029;-68
2022/01/25 11:54:54;;;;;;;45.33;27.23;;;3.80;99.90;;;;;;5088641;28;20020;-67
2022/01/25 11:57:22;;;;;;;49.88;27.58;;;3.90;99.90;;;;;;5075260;28;20032;-68
2022/01/25 11:59:56;;;;;;;44.40;26.90;;;3.90;99.90;;;;;;5084232;28;20111;-68
2022/01/25 12:02:54;;;;;;;46.50;27.38;;;3.90;99.90;;;;;;5074071;28;20047;-67
2022/01/25 12:05:27;;;;;;;40.58;24.20;;;3.90;99.90;;;;;;5037909;28;20159;-67
2022/01/25 12:08:11;;;;;;;46.75;27.50;;;3.90;99.90;;;;;;5082741;28;20082;-67
2022/01/25 12:10:41;;;;;;;51.78;27.55;;;4.00;99.90;;;;;;5066373;28;20036;-67
2022/01/25 12:13:16;;;;;;;44.28;27.30;;;4.10;99.90;;;;;;5075579;28;20024;-67
2022/01/25 12:15:42;;;;;;;47.65;26.75;;;4.10;99.90;;;;;;5064419;28;20049;-68
2022/01/25 12:18:27;;;;;;;40.22;26.58;;;4.10;99.90;;;;;;5071831;28;20039;-68
2022/01/25 12:20:54;;;;;;;42.17;25.83;;;4.10;99.90;;;;;;5067573;28;20028;-69
2022/01/25 12:23:43;;;;;;;46.15;27.33;;;4.20;99.90;;;;;;5072272;28;20130;-69
2022/01/25 12:26:15;;;;;;;47.33;26.83;;;4.20;99.90;;;;;;5074677;28;20063;-68
2022/01/25 12:28:45;;;;;;;45.67;27.20;;;4.30;99.90;;;;;;5080830;28;20082;-68
2022/01/25 12:31:17;;;;;;;41.60;25.45;;;4.40;99.90;;;;;;5070650;28;20119;-68
2022/01/25 12:33:45;;;;;;;46.35;26.95;;;4.40;99.90;;;;;;5072160;28;20468;-68
2022/01/25 12:36:11;;;;;;;46.33;27.70;;;4.50;99.90;;;;;;5069840;28;20107;-67
2022/01/25 12:38:51;;;;;;;45.67;28.38;;;4.60;99.90;;;;;;5076670;28;20032;-68
2022/01/25 12:41:20;;;;;;;44.35;28.23;;;4.60;99.90;;;;;;5074252;28;20035;-68
2022/01/25 12:43:57;;;;;;;55.95;30.38;;;4.70;99.90;;;;;;5080340;28;20062;-67
2022/01/25 12:46:33;;;;;;;51.65;29.48;;;4.60;99.90;;;;;;5079931;28;20481;-67
2022/01/25 12:49:10;;;;;;;52.10;30.80;;;4.50;99.90;;;;;;5079708;28;20032;-67
2022/01/25 12:51:38;;;;;;;49.47;28.55;;;4.40;99.90;;;;;;5069000;28;20020;-67
2022/01/25 12:54:07;;;;;;;56.85;29.48;;;4.30;99.90;;;;;;5073252;28;20103;-64
2022/01/25 12:56:35;;;;;;;46.05;27.77;;;4.20;99.90;;;;;;5074024;28;20024;-66
2022/01/25 12:59:08;;;;;;;46.30;27.77;;;4.10;99.90;;;;;;5075607;28;20033;-66
2022/01/25 13:01:37;;;;;;;49.60;29.67;;;4.10;99.90;;;;;;5081026;28;20033;-66
2022/01/25 13:04:06;;;;;;;42.83;26.73;;;4.10;99.90;;;;;;5094127;28;20431;-66
2022/01/25 13:06:41;;;;;;;49.67;29.38;;;4.10;99.90;;;;;;5079794;28;20074;-66
2022/01/25 13:17:11;;;;;;;48.33;28.15;;;4.10;99.90;;;;;;5091030;28;20028;-67
2022/01/25 13:19:44;;;;;;;46.03;27.52;;;4.10;99.90;;;;;;5080741;28;20375;-67
2022/01/25 13:22:13;;;;;;;47.78;28.67;;;4.10;99.90;;;;;;5063638;28;20119;-66
2022/01/25 13:24:55;;;;;;;48.63;29.52;;;4.10;99.90;;;;;;5089349;28;20028;-67
2022/01/25 13:27:21;;;;;;;49.65;29.27;;;4.20;99.90;;;;;;5061425;28;20050;-67
2022/01/25 13:32:47;;;;;;;47.22;29.15;;;4.10;99.90;;;;;;5073407;28;20059;-67
2022/01/25 13:35:19;;;;;;;45.80;27.00;;;4.10;99.90;;;;;;5073468;28;20388;-72
2022/01/25 13:38:02;;;;;;;47.72;27.13;;;4.10;99.90;;;;;;5079776;28;20037;-67
2022/01/25 13:40:37;;;;;;;51.65;28.90;;;4.20;99.90;;;;;;5081351;28;20020;-68
2022/01/25 13:43:32;;;;;;;50.75;28.67;;;4.30;99.90;;;;;;5062369;28;20032;-68
2022/01/25 13:46:04;;;;;;;51.10;28.33;;;4.20;99.90;;;;;;5070361;28;20418;-68
2022/01/25 13:48:31;;;;;;;47.63;28.08;;;4.20;99.90;;;;;;5081950;28;20043;-68
2022/01/25 13:50:59;;;;;;;46.33;27.40;;;4.20;99.90;;;;;;5066866;28;20090;-68
2022/01/25 13:53:26;;;;;;;46.20;28.17;;;4.20;99.90;;;;;;5071259;28;20028;-68
2022/01/25 13:55:55;;;;;;;48.33;28.52;;;4.30;99.90;;;;;;5087407;28;20377;-69
2022/01/25 13:58:45;;;;;;;50.97;28.92;;;4.20;99.90;;;;;;5074494;28;20510;-70
2022/01/25 14:01:13;;;;;;;52.72;30.38;;;4.30;99.90;;;;;;5082014;28;20041;-69
2022/01/25 14:03:43;;;;;;;56.88;30.70;;;4.30;99.90;;;;;;5094948;28;20059;-69
2022/01/25 14:06:29;;;;;;;56.83;31.83;;;4.30;99.90;;;;;;5080652;28;20038;-68
2022/01/25 14:09:14;;;;;;;57.22;31.30;;;4.20;99.90;;;;;;5072922;28;20092;-68
2022/01/25 14:25:41;;;;;;;64.82;35.72;;;3.60;99.90;;;;;;5075638;28;20035;-68
2022/01/25 14:28:15;;;;;;;65.05;34.90;;;3.50;99.90;;;;;;5079013;28;20074;-69
2022/01/25 14:30:44;;;;;;;67.35;34.72;;;3.40;99.90;;;;;;5072881;28;20044;-68
2022/01/25 14:33:14;;;;;;;69.72;36.08;;;3.30;99.90;;;;;;5079946;28;20553;-67
2022/01/25 14:35:48;;;;;;;69.25;36.40;;;3.20;99.90;;;;;;5087732;28;20039;-68
2022/01/25 14:38:22;;;;;;;68.55;34.05;;;3.10;99.90;;;;;;5077206;28;20036;-68
2022/01/25 14:41:05;;;;;;;72.15;37.85;;;3.00;99.90;;;;;;5089311;28;20537;-67